• Join FlightAware (Why Join?)
  • Login
  • US Flag 
09:02PM EDT


 

Airport Tracker/Info


-or-


 

Live Flight TrackerFlight Track Log ✈ NJE9SD ✈ 02-Nov-2013 ✈ KAPF - KHPN

Flight Track Log - Related Links

Times and Time Zones

All times are in EDT time to prevent confusion due to time zone crossing. See the NJE9SD flight status page for this flight to view local times or setup timezone preferences in your user account.

Time Position Orientation Groundspeed Altitude Reporting Facility
EDT Latitude Longitude Course Direction KTS MPH feet Rate Location/Type
02:07PM 26.1864 -81.8803 38° Northeast 281 323 8,400  Level Miami Center
02:08PM 26.2744 -81.8653 North 292 336 11,000 2,460 Climbing Miami Center
02:09PM 26.3647 -81.8506 North 311 358 13,400 2,400 Climbing Miami Center
02:10PM 26.4572 -81.8361 North 328 377 15,900 2,580 Climbing Miami Center
02:11PM 26.9310 -81.4209 41° Northeast  Level Estimated
02:11PM 26.5600 -81.8217 North 347 399 18,600  Level Miami Center
02:12PM 27.0607 -81.3614 38° Northeast  Level Estimated
02:12PM 26.6689 -81.8056 North 371 427 21,600  Level Miami Center
02:13PM 26.7867 -81.7847 North 395 455 23,000 2,040 Climbing Miami Center
02:14PM 26.9106 -81.7622 North 426 490 25,700 2,640 Climbing Miami Center
02:15PM 27.0422 -81.7583 North 447 514 28,300 1,860 Climbing Miami Center
02:16PM 27.1703 -81.7917 347° North 465 535 29,500 1,800 Climbing Miami Center
02:17PM 27.2881 -81.8319 343° North 477 549 31,900 1,740 Climbing Miami Center
02:18PM 27.4183 -81.8656 347° North 477 549 33,000 540 Climbing Miami Center
02:19PM 27.5653 -81.8439 North 478 550 33,000 300 Level Miami Center
02:20PM 27.6944 -81.7839 22° Northeast 486 559 33,700 1,020 Climbing Miami Center
02:21PM 27.7967 -81.7272 26° Northeast 496 571 35,100 1,320 Climbing Miami Center
02:22PM 27.9594 -81.6661 18° North 506 582 36,400 1,380 Climbing Miami Center
02:23PM 28.1039 -81.6511 North 512 589 37,900 1,260 Climbing Miami Center
02:24PM 28.2458 -81.6453 North 512 589 39,000 480 Climbing Miami Center
02:25PM 28.3878 -81.6325 North 529 609 39,000  Level Jacksonville Center
02:26PM 28.5486 -81.6281 North 545 627 39,000  Level Jacksonville Center
02:27PM 28.6925 -81.6192 North 531 611 39,000  Level Jacksonville Center
02:28PM 28.8383 -81.6081 North 523 602 39,000  Level Jacksonville Center
02:29PM 28.9844 -81.5917 North 518 596 39,000  Level Jacksonville Center
02:30PM 29.1281 -81.5661 North 518 596 39,000  Level Jacksonville Center
02:31PM 29.2697 -81.5406 North 518 596 39,000  Level Jacksonville Center
02:32PM 29.4136 -81.5147 North 518 596 39,000  Level Jacksonville Center
02:33PM 29.5572 -81.4911 North 523 602 39,000  Level Jacksonville Center
02:34PM 29.6989 -81.4653 North 523 602 39,000  Level Jacksonville Center
02:35PM 29.8469 -81.4389 North 523 602 39,000  Level Jacksonville Center
02:36PM 29.9886 -81.4128 North 518 596 39,000  Level Jacksonville Center
02:37PM 30.1344 -81.3867 North 524 603 39,000  Level Jacksonville Center
02:38PM 30.2781 -81.3603 North 524 603 39,000  Level Jacksonville Center
02:39PM 30.4242 -81.3364 North 524 603 39,000  Level Jacksonville Center
02:40PM 30.5678 -81.3122 North 519 597 39,000  Level Jacksonville Center
02:41PM 30.7136 -81.2858 North 519 597 39,000  Level Jacksonville Center
02:42PM 30.8553 -81.2592 North 519 597 39,000  Level Jacksonville Center
02:43PM 30.9969 -81.2350 North 519 597 39,000  Level Jacksonville Center
02:44PM 31.1406 -81.2081 North 519 597 39,000  Level Jacksonville Center
02:45PM 31.2803 -81.1789 10° North 514 592 39,000  Level Jacksonville Center
02:46PM 31.4169 -81.1106 23° Northeast 526 605 39,000  Level Jacksonville Center
02:47PM 31.5472 -81.0178 31° Northeast 537 618 39,000  Level Jacksonville Center
02:48PM 31.6753 -80.9275 31° Northeast 537 618 39,000  Level Jacksonville Center
02:49PM 31.7931 -80.8442 31° Northeast 537 618 39,000  Level Jacksonville Center
02:50PM 31.9333 -80.7408 32° Northeast 537 618 39,000  Level Jacksonville Center
02:51PM 32.0631 -80.6469 32° Northeast 539 620 39,000  Level Jacksonville Center
02:52PM 32.1786 -80.5633 31° Northeast 534 615 39,000  Level Jacksonville Center
02:53PM 32.3206 -80.4614 31° Northeast 541 623 39,000  Level Jacksonville Center
02:54PM 32.4503 -80.3667 32° Northeast 541 623 39,000  Level Jacksonville Center
02:55PM 32.5756 -80.2672 34° Northeast 541 623 39,000  Level Jacksonville Center
02:56PM 32.6944 -80.1575 38° Northeast 541 623 39,000  Level Jacksonville Center
02:57PM 32.8150 -80.0428 39° Northeast 546 628 39,000  Level Jacksonville Center
02:58PM 32.9375 -79.9275 38° Northeast 552 635 39,000  Level Jacksonville Center
02:59PM 33.0600 -79.8144 38° Northeast 557 641 39,000  Level Jacksonville Center
03:00PM 33.1825 -79.7008 38° Northeast 550 633 39,000  Level Jacksonville Center
03:01PM 33.3028 -79.5847 39° Northeast 550 633 39,000  Level Jacksonville Center
03:02PM 33.4228 -79.4733 38° Northeast 550 633 39,000  Level Jacksonville Center
03:03PM 33.5428 -79.3567 39° Northeast 550 633 39,000  Level Jacksonville Center
03:04PM 33.6647 -79.2419 38° Northeast 550 633 39,000  Level Jacksonville Center
03:05PM 33.7783 -79.1322 39° Northeast 545 627 39,000  Level Jacksonville Center
03:08PM 34.0689 -78.8533 38° Northeast 548 631 39,000  Level Washington Center
03:09PM 34.1889 -78.7353 39° Northeast 553 636 39,000  Level Washington Center
03:10PM 34.3086 -78.6217 38° Northeast 553 636 39,000  Level Washington Center
03:11PM 34.4328 -78.5003 39° Northeast 558 642 39,000  Level Washington Center
03:12PM 34.5375 -78.3956 39° Northeast 558 642 39,000  Level Washington Center
03:13PM 34.6611 -78.2761 38° Northeast 552 635 39,000  Level Washington Center
03:14PM 34.7889 -78.1639 36° Northeast 558 642 39,000  Level Washington Center
03:15PM 34.9164 -78.0592 34° Northeast 558 642 39,000  Level Washington Center
03:16PM 35.0436 -77.9564 33° Northeast 553 636 39,000  Level Washington Center
03:17PM 35.1769 -77.8511 33° Northeast 553 636 39,000  Level Washington Center
03:18PM 35.3061 -77.7503 32° Northeast 553 636 39,000  Level Washington Center
03:19PM 35.4375 -77.6467 33° Northeast 553 636 39,000  Level Washington Center
03:20PM 35.5686 -77.5403 33° Northeast 558 642 39,000  Level Washington Center
03:21PM 35.6975 -77.4386 33° Northeast 558 642 39,000  Level Washington Center
03:22PM 35.8283 -77.3314 34° Northeast 558 642 39,000  Level Washington Center
03:23PM 35.9592 -77.2267 33° Northeast 558 642 39,000  Level Washington Center
03:24PM 36.0858 -77.1214 34° Northeast 558 642 39,000  Level Washington Center
03:25PM 36.2164 -77.0156 33° Northeast 553 636 39,000  Level Washington Center
03:26PM 36.3469 -76.9097 33° Northeast 559 643 39,000  Level Washington Center
03:27PM 36.4756 -76.8008 34° Northeast 559 643 39,000  Level Washington Center
03:28PM 36.6078 -76.6967 32° Northeast 554 638 39,000  Level Washington Center
03:29PM 36.7383 -76.5819 35° Northeast 559 643 39,000  Level Washington Center
03:30PM 36.8706 -76.4747 33° Northeast 559 643 39,000  Level Washington Center
03:31PM 36.9986 -76.3642 35° Northeast 559 643 39,000  Level Washington Center
03:32PM 37.1306 -76.2536 34° Northeast 559 643 39,000  Level Washington Center
03:33PM 37.2814 -76.1347 32° Northeast 564 649 39,000  Level Washington Center
03:34PM 37.4133 -76.0233 34° Northeast 564 649 39,000  Level Washington Center
03:35PM 37.5408 -75.9139 34° Northeast 564 649 39,000  Level Washington Center
03:36PM 37.6744 -75.7992 34° Northeast 564 649 39,000  Level Washington Center
03:37PM 37.8061 -75.6892 33° Northeast 564 649 39,000  Level Washington Center
03:38PM 37.9394 -75.5733 34° Northeast 570 656 39,000  Level Washington Center
03:39PM 38.0689 -75.4625 34° Northeast 570 656 39,000  Level Washington Center
03:40PM 38.2106 -75.3725 27° Northeast 565 650 39,000  Level Washington Center
03:41PM 38.3478 -75.2794 28° Northeast 559 643 39,000 -240 Level Washington Center
03:42PM 38.4894 -75.1911 26° Northeast 559 643 38,600 -840 Descending Washington Center
03:43PM 38.6328 -75.0972 27° Northeast 559 643 37,400 -1,200 Descending Washington Center
03:44PM 38.7783 -75.0086 25° Northeast 566 651 36,200 -1,560 Descending Washington Center
03:45PM 38.9300 -74.9086 27° Northeast 578 665 34,300 -2,100 Descending Washington Center
03:46PM 39.0775 -74.8081 28° Northeast 596 686 32,100 -2,520 Descending Washington Center
03:47PM 39.2161 -74.6808 35° Northeast 601 692 29,300 -2,460 Descending Washington Center
03:49PM 39.4911 -74.3889 39° Northeast 581 669 24,200 -1,680 Descending New York Center
03:50PM 39.6267 -74.2478 39° Northeast 571 657 24,000 -600 Descending New York Center
03:51PM 39.7472 -74.1189 39° Northeast 564 649 23,100 -1,260 Descending New York Center
03:53PM 39.9383 -73.9150 39° Northeast 554 638 20,800 -1,440 Descending Boston Center
03:54PM 40.0522 -73.7922 40° Northeast 529 609 19,400 -1,440 Descending Boston Center
03:55PM 40.1617 -73.6750 39° Northeast 509 586 17,800 -1,260 Descending Boston Center
03:56PM 40.2578 -73.5747 39° Northeast 472 543 16,900 -480 Descending Boston Center
03:57PM 40.3864 -73.4594 34° Northeast 457 526 16,900  Level Boston Center
03:58PM 40.5106 -73.4078 18° North 462 532 16,900 -600 Level Boston Center
03:59PM 40.6294 -73.3644 15° North 442 509 15,800 -1,020 Descending Boston Center
04:00PM 40.7333 -73.3253 16° North 390 449 14,900 -480 Descending Boston Center
04:01PM 40.8164 -73.2550 33° Northeast 372 428 14,900 -1,380 Level Boston Center
04:03PM 40.9333 -73.0000 59° Northeast 339 390 10,700 -1,860 Descending New York TRACON
04:04PM 41.0000 -72.9500 30° Northeast 306 352 9,300 -1,320 Descending New York TRACON
04:06PM 41.0833 -73.1000 306° West 253 291 6,800 -1,080 Descending New York TRACON
04:07PM 41.1000 -73.1833 285° West 254 292 6,200 -600 Descending New York TRACON
04:08PM 41.1167 -73.2667 285° West 252 290 5,600 -600 Descending New York TRACON
04:09PM 41.1500 -73.3500 298° West 252 290 5,000 -780 Descending New York TRACON
04:11PM 41.1833 -73.5333 284° West 251 289 3,400 -840 Descending New York TRACON
04:12PM 41.2167 -73.6167 298° West 253 291 2,600 -720 Descending New York TRACON
04:13PM 41.2167 -73.7000 270° West 218 251 2,000 -240 Descending New York TRACON
04:15PM 41.1667 -73.7833 231° Southwest 170 196 2,000 -120 Level New York TRACON
04:16PM 41.1333 -73.7500 143° Southeast 162 186 1,800 -480 Descending New York TRACON
04:17PM 41.1000 -73.7333 159° South 121 139 1,100 -720 Descending New York TRACON